TimeMDT,TemperatureF,Dew PointF,Humidity,Sea Level PressureIn,VisibilityMPH,Wind Direction,Wind SpeedMPH,Gust SpeedMPH,PrecipitationIn,Events,Conditions,WindDirDegrees,DateUTC
12:53 AM,72.0,61.0,68,29.86,10.0,SSE,12.7,-,N/A,,Clear,150,2013-08-17 06:53:00
1:53 AM,70.0,61.0,73,29.84,10.0,SSE,11.5,-,N/A,,Clear,160,2013-08-17 07:53:00
2:53 AM,69.1,61.0,75,29.83,10.0,SSE,8.1,-,N/A,,Clear,160,2013-08-17 08:53:00
3:53 AM,68.0,60.1,76,29.82,10.0,SSE,4.6,-,N/A,,Clear,150,2013-08-17 09:53:00
4:53 AM,68.0,57.0,68,29.81,10.0,SE,9.2,-,N/A,,Clear,140,2013-08-17 10:53:00
5:53 AM,66.9,57.0,70,29.83,10.0,SSE,9.2,-,N/A,,Clear,160,2013-08-17 11:53:00
6:53 AM,68.0,57.0,68,29.82,10.0,SSE,13.8,-,N/A,,Clear,150,2013-08-17 12:53:00
7:53 AM,70.0,57.9,65,29.83,10.0,SSE,10.4,-,N/A,,Clear,160,2013-08-17 13:53:00
8:53 AM,73.9,57.9,57,29.84,10.0,South,11.5,-,N/A,,Clear,170,2013-08-17 14:53:00
9:53 AM,78.1,57.0,48,29.84,10.0,SW,12.7,-,N/A,,Clear,220,2013-08-17 15:53:00
10:53 AM,80.1,55.9,43,29.86,10.0,West,10.4,-,N/A,,Clear,260,2013-08-17 16:53:00
11:53 AM,82.0,55.0,39,29.86,10.0,West,8.1,-,N/A,,Clear,280,2013-08-17 17:53:00
12:53 PM,84.9,55.0,36,29.85,10.0,West,5.8,-,N/A,,Clear,280,2013-08-17 18:53:00
1:53 PM,89.1,52.0,28,29.85,10.0,NNW,10.4,19.6,N/A,,Clear,330,2013-08-17 19:53:00
2:53 PM,90.0,51.1,26,29.84,10.0,NNW,13.8,20.7,N/A,,Clear,340,2013-08-17 20:53:00
3:53 PM,91.9,52.0,26,29.84,10.0,North,12.7,-,N/A,,Clear,360,2013-08-17 21:53:00
4:53 PM,91.9,48.0,22,29.84,10.0,North,12.7,-,N/A,,Clear,10,2013-08-17 22:53:00
5:53 PM,91.0,48.0,23,29.84,10.0,North,12.7,-,N/A,,Clear,360,2013-08-17 23:53:00
6:53 PM,88.0,51.1,28,29.84,10.0,North,9.2,-,N/A,,Clear,10,2013-08-18 00:53:00
7:53 PM,81.0,52.0,36,29.84,10.0,North,5.8,-,N/A,,Clear,360,2013-08-18 01:53:00
8:53 PM,80.1,50.0,35,29.86,10.0,North,4.6,-,N/A,,Clear,10,2013-08-18 02:53:00
9:53 PM,77.0,50.0,39,29.87,10.0,Calm,Calm,-,N/A,,Clear,0,2013-08-18 03:53:00
10:53 PM,73.9,50.0,43,29.87,10.0,Calm,Calm,-,N/A,,Clear,0,2013-08-18 04:53:00
11:53 PM,69.1,53.1,57,29.88,10.0,Calm,Calm,-,N/A,,Clear,0,2013-08-18 05:53:00